createdAt,value
2023-04-06T00:00:10.599Z,94.29
2023-04-06T00:02:40.707Z,94.52
2023-04-06T00:05:09.656Z,94.69
2023-04-06T00:07:38.156Z,93.66
2023-04-06T00:10:07.760Z,94.68
2023-04-06T00:12:36.323Z,94.43
2023-04-06T00:15:06.593Z,94.85
2023-04-06T00:17:35.110Z,94.89
2023-04-06T00:20:05.311Z,94.85
2023-04-06T00:22:33.647Z,94.21
2023-04-06T00:25:02.064Z,94.89
2023-04-06T00:27:30.676Z,94.74
2023-04-06T00:29:58.977Z,95.25
2023-04-06T00:32:27.308Z,95.03
2023-04-06T00:34:55.756Z,94.93
2023-04-06T00:37:25.464Z,94.89
2023-04-06T00:39:53.815Z,95.11
2023-04-06T00:42:26.765Z,95.16
2023-04-06T00:44:55.474Z,94.69
2023-04-06T00:47:26.146Z,95.51
2023-04-06T00:49:55.454Z,95.71
2023-04-06T00:52:25.166Z,95.72
2023-04-06T00:54:55.143Z,95.55
2023-04-06T00:57:24.605Z,95.55
2023-04-06T00:59:58.431Z,95.61
2023-04-06T01:02:27.397Z,95.28
2023-04-06T01:04:56.808Z,95.55
2023-04-06T01:07:35.581Z,95.81
2023-04-06T01:10:12.218Z,95.82
2023-04-06T01:12:41.050Z,95.70
2023-04-06T01:15:19.346Z,94.93
2023-04-06T01:17:52.334Z,95.17
2023-04-06T01:20:21.274Z,94.97
2023-04-06T01:22:51.232Z,94.49
2023-04-06T01:25:20.875Z,94.61
2023-04-06T01:28:09.537Z,94.40
2023-04-06T01:30:57.945Z,94.53
2023-04-06T01:33:41.612Z,94.37
2023-04-06T01:36:13.621Z,94.43
2023-04-06T01:38:43.592Z,94.57
2023-04-06T01:41:12.460Z,95.26
2023-04-06T01:43:50.524Z,94.83
2023-04-06T01:46:19.057Z,94.42
2023-04-06T01:48:47.406Z,94.67
2023-04-06T01:51:36.093Z,94.41
2023-04-06T01:54:09.028Z,94.49
2023-04-06T01:56:57.617Z,94.65
2023-04-06T01:59:52.382Z,94.66
2023-04-06T02:02:30.285Z,94.46
2023-04-06T02:05:06.464Z,94.49
2023-04-06T02:07:35.210Z,94.32
2023-04-06T02:10:05.915Z,94.80
2023-04-06T02:12:39.189Z,95.09
2023-04-06T02:15:11.803Z,95.38
2023-04-06T02:17:40.285Z,94.71
2023-04-06T02:20:09.606Z,94.85
2023-04-06T02:22:38.008Z,94.72
2023-04-06T02:25:08.715Z,95.07
2023-04-06T02:27:37.261Z,94.78
2023-04-06T02:30:06.454Z,95.17
2023-04-06T02:32:34.807Z,95.40
2023-04-06T02:35:03.837Z,95.17
2023-04-06T02:37:33.183Z,96.22
2023-04-06T02:40:01.546Z,95.12
2023-04-06T02:42:33.905Z,95.84
2023-04-06T02:45:02.286Z,95.82
2023-04-06T02:47:35.556Z,96.00
2023-04-06T02:50:04.058Z,95.91
2023-04-06T02:52:34.300Z,95.67
2023-04-06T02:55:02.895Z,95.84
2023-04-06T02:57:34.409Z,96.42
2023-04-06T03:00:03.236Z,96.48
2023-04-06T03:02:39.904Z,95.98
2023-04-06T03:05:12.896Z,96.09
2023-04-06T03:07:44.768Z,96.44
2023-04-06T03:10:21.020Z,95.78
2023-04-06T03:12:51.885Z,95.88
2023-04-06T03:15:26.327Z,96.13
2023-04-06T03:18:02.845Z,95.88
2023-04-06T03:20:42.440Z,95.17
2023-04-06T03:23:11.946Z,96.33
2023-04-06T03:25:43.811Z,96.65
2023-04-06T03:28:18.092Z,95.88
2023-04-06T03:30:59.402Z,96.81
2023-04-06T03:34:00.167Z,97.03
2023-04-06T03:36:33.001Z,96.62
2023-04-06T03:39:02.340Z,96.52
2023-04-06T03:41:33.537Z,96.29
2023-04-06T03:44:08.982Z,95.99
2023-04-06T03:46:37.454Z,96.92
2023-04-06T03:49:06.234Z,95.94
2023-04-06T03:51:34.784Z,96.19
2023-04-06T03:54:03.568Z,96.51
2023-04-06T03:56:31.963Z,95.55
2023-04-06T03:59:00.442Z,96.64
2023-04-06T04:01:30.505Z,95.50
2023-04-06T04:03:59.071Z,95.57
2023-04-06T04:06:27.490Z,96.30
2023-04-06T04:08:55.829Z,94.62
2023-04-06T04:11:24.836Z,95.01
2023-04-06T04:13:59.155Z,95.46
2023-04-06T04:16:27.738Z,95.16
2023-04-06T04:18:59.041Z,95.56
2023-04-06T04:21:27.656Z,93.48
2023-04-06T04:23:56.174Z,92.97
2023-04-06T04:26:24.613Z,94.09
2023-04-06T04:28:53.081Z,95.13
2023-04-06T04:31:23.351Z,93.32
2023-04-06T04:33:57.998Z,93.54
2023-04-06T04:36:31.181Z,94.48
2023-04-06T04:39:03.352Z,93.82
2023-04-06T04:41:36.377Z,90.57
2023-04-06T04:44:07.076Z,90.66
2023-04-06T04:46:35.416Z,88.20
2023-04-06T04:49:05.494Z,91.09
2023-04-06T04:51:34.872Z,91.24
2023-04-06T04:54:26.030Z,93.36
2023-04-06T04:56:54.901Z,92.75
2023-04-06T04:59:31.532Z,91.30
2023-04-06T05:02:10.624Z,92.14
2023-04-06T05:04:49.811Z,90.61
2023-04-06T05:07:23.146Z,88.85
2023-04-06T05:09:52.746Z,89.27
2023-04-06T05:12:22.864Z,88.48
2023-04-06T05:15:01.813Z,86.50
2023-04-06T05:17:30.441Z,85.96
2023-04-06T05:20:00.481Z,86.80
2023-04-06T05:22:31.555Z,86.01
2023-04-06T05:25:10.787Z,85.62
2023-04-06T05:27:41.542Z,86.94
2023-04-06T05:30:21.525Z,84.03
2023-04-06T05:32:51.011Z,85.41
2023-04-06T05:35:21.355Z,86.93
2023-04-06T05:37:53.350Z,85.67
2023-04-06T05:40:25.809Z,84.23
2023-04-06T05:42:54.576Z,82.47
2023-04-06T05:45:23.054Z,83.94
2023-04-06T05:47:56.288Z,81.54
2023-04-06T05:50:29.504Z,80.37
2023-04-06T05:52:58.923Z,79.31
2023-04-06T05:55:32.433Z,77.94
2023-04-06T05:58:13.095Z,79.40
2023-04-06T06:00:41.459Z,76.11
2023-04-06T06:03:11.095Z,74.80
2023-04-06T06:05:43.680Z,74.93
2023-04-06T06:08:17.306Z,73.77
2023-04-06T06:10:46.433Z,74.40
2023-04-06T06:13:15.774Z,72.63
2023-04-06T06:15:44.713Z,72.64
2023-04-06T06:18:13.110Z,73.02
2023-04-06T06:20:43.636Z,72.80
2023-04-06T06:23:12.447Z,72.44
2023-04-06T06:25:41.496Z,72.12
2023-04-06T06:28:10.441Z,68.69
2023-04-06T06:30:38.892Z,65.76
2023-04-06T06:33:07.914Z,63.15
2023-04-06T06:35:36.780Z,60.96
2023-04-06T06:38:08.001Z,59.95
2023-04-06T06:40:36.698Z,58.59
2023-04-06T06:43:05.825Z,57.45
2023-04-06T06:45:38.497Z,57.22
2023-04-06T06:48:07.318Z,57.14
2023-04-06T06:50:36.070Z,57.47
2023-04-06T06:53:04.461Z,56.86
2023-04-06T06:55:34.206Z,56.95
2023-04-06T06:58:02.852Z,55.91
2023-04-06T07:00:31.215Z,56.16
2023-04-06T07:03:01.164Z,55.82
2023-04-06T07:05:29.733Z,55.37
2023-04-06T07:08:00.508Z,55.81
2023-04-06T07:10:28.875Z,55.68
2023-04-06T07:12:58.964Z,55.48
2023-04-06T07:15:27.843Z,55.44
2023-04-06T07:17:56.795Z,55.87
2023-04-06T07:20:25.752Z,55.53
2023-04-06T07:22:54.282Z,55.04
2023-04-06T07:25:25.240Z,55.11
2023-04-06T07:27:54.298Z,55.23
2023-04-06T07:30:26.130Z,55.42
2023-04-06T07:32:56.461Z,55.80
2023-04-06T07:35:25.655Z,56.19
2023-04-06T07:37:54.812Z,55.95
2023-04-06T07:40:23.843Z,56.25
2023-04-06T07:42:54.250Z,55.47
2023-04-06T07:45:24.971Z,56.36
2023-04-06T07:47:53.503Z,55.49
2023-04-06T07:50:22.096Z,56.16
2023-04-06T07:52:50.443Z,56.21
2023-04-06T07:55:18.869Z,56.06
2023-04-06T07:57:47.156Z,55.88
2023-04-06T08:00:16.678Z,56.00
2023-04-06T08:02:46.476Z,55.39
2023-04-06T08:05:14.899Z,56.42
2023-04-06T08:07:43.687Z,56.10
2023-04-06T08:10:12.528Z,55.90
2023-04-06T08:12:40.905Z,55.36
2023-04-06T08:15:09.847Z,55.56
2023-04-06T08:17:38.221Z,55.58
2023-04-06T08:20:08.945Z,55.79
2023-04-06T08:22:37.416Z,55.27
2023-04-06T08:25:06.527Z,55.44
2023-04-06T08:27:34.941Z,55.52
2023-04-06T08:30:03.411Z,55.16
2023-04-06T08:32:31.820Z,55.36
2023-04-06T08:35:00.230Z,55.15
2023-04-06T08:37:30.177Z,54.99
2023-04-06T08:39:59.654Z,54.82
2023-04-06T08:42:30.122Z,55.05
2023-04-06T08:44:58.511Z,54.73
2023-04-06T08:47:26.908Z,55.28
2023-04-06T08:49:56.750Z,54.78
2023-04-06T08:52:26.246Z,54.57
2023-04-06T08:54:56.040Z,54.71
2023-04-06T08:57:24.871Z,55.45
2023-04-06T08:59:53.693Z,54.54
2023-04-06T09:02:23.459Z,55.51
2023-04-06T09:04:55.302Z,54.55
2023-04-06T09:07:24.957Z,54.91
2023-04-06T09:09:53.336Z,55.25
2023-04-06T09:12:28.601Z,54.51
2023-04-06T09:14:57.858Z,54.68
2023-04-06T09:17:29.538Z,54.87
2023-04-06T09:19:58.628Z,55.29
2023-04-06T09:22:29.298Z,55.01
2023-04-06T09:24:57.613Z,55.03
2023-04-06T09:27:37.487Z,54.88
2023-04-06T09:30:07.809Z,55.42
2023-04-06T09:32:47.949Z,54.74
2023-04-06T09:35:16.957Z,54.71
2023-04-06T09:37:45.632Z,54.72
2023-04-06T09:40:15.445Z,55.09
2023-04-06T09:42:47.409Z,54.92
2023-04-06T09:45:16.383Z,54.62
2023-04-06T09:47:46.703Z,54.65
2023-04-06T09:50:16.965Z,54.79
2023-04-06T09:52:49.747Z,54.84
2023-04-06T09:55:26.151Z,54.46
2023-04-06T09:58:03.483Z,54.70
2023-04-06T10:00:37.003Z,55.18
2023-04-06T10:03:17.049Z,54.89
2023-04-06T10:05:48.875Z,54.41
2023-04-06T10:08:18.578Z,54.85
2023-04-06T10:10:47.428Z,55.07
2023-04-06T10:13:17.914Z,55.11
2023-04-06T10:15:46.886Z,54.62
2023-04-06T10:18:16.640Z,54.84
2023-04-06T10:20:51.924Z,55.00
2023-04-06T10:23:24.972Z,54.50
2023-04-06T10:25:57.129Z,55.34
2023-04-06T10:28:28.290Z,55.20
2023-04-06T10:31:00.729Z,55.13
2023-04-06T10:33:29.902Z,55.07
2023-04-06T10:35:58.475Z,55.26
2023-04-06T10:38:39.622Z,55.20
2023-04-06T10:41:11.892Z,55.78
2023-04-06T10:43:43.362Z,55.73
2023-04-06T10:46:12.924Z,55.73
2023-04-06T10:48:42.333Z,55.31
2023-04-06T10:51:12.339Z,55.24
2023-04-06T10:53:42.179Z,54.93
2023-04-06T10:56:13.444Z,55.53
2023-04-06T10:58:48.637Z,55.14
2023-04-06T11:01:18.619Z,55.71
2023-04-06T11:03:47.903Z,55.84
2023-04-06T11:06:23.580Z,54.76
2023-04-06T11:08:52.903Z,54.74
2023-04-06T11:11:22.693Z,54.86
2023-04-06T11:13:53.888Z,55.00
2023-04-06T11:16:23.956Z,55.18
2023-04-06T11:18:54.495Z,55.33
2023-04-06T11:21:34.234Z,54.87
2023-04-06T11:24:12.962Z,55.03
2023-04-06T11:26:42.858Z,54.73
2023-04-06T11:29:13.285Z,55.04
2023-04-06T11:31:42.937Z,55.24
2023-04-06T11:34:15.179Z,55.04
2023-04-06T11:36:44.826Z,55.09
2023-04-06T11:39:13.719Z,55.04
2023-04-06T11:41:42.183Z,55.11
2023-04-06T11:44:11.951Z,55.04
2023-04-06T11:46:40.725Z,55.20
2023-04-06T11:49:09.064Z,55.30
2023-04-06T11:51:38.791Z,54.46
2023-04-06T11:54:07.335Z,54.59
2023-04-06T11:56:35.629Z,54.54
2023-04-06T11:59:03.984Z,54.74
2023-04-06T12:01:38.850Z,55.10
2023-04-06T12:04:07.603Z,55.47
2023-04-06T12:06:36.229Z,55.60
2023-04-06T12:09:04.701Z,55.52
2023-04-06T12:11:33.162Z,54.94
2023-04-06T12:14:02.708Z,54.87
2023-04-06T12:16:31.115Z,54.88
2023-04-06T12:19:01.104Z,54.62
2023-04-06T12:21:31.946Z,54.53
2023-04-06T12:24:00.722Z,54.66
2023-04-06T12:26:30.746Z,54.89
2023-04-06T12:29:03.961Z,54.39
2023-04-06T12:31:32.268Z,54.73
2023-04-06T12:34:03.190Z,54.37
2023-04-06T12:36:32.213Z,54.55
2023-04-06T12:39:01.414Z,54.20
2023-04-06T12:41:30.748Z,54.82
2023-04-06T12:44:00.540Z,54.83
2023-04-06T12:46:30.939Z,54.64
2023-04-06T12:49:00.169Z,54.69
2023-04-06T12:51:32.131Z,54.66
2023-04-06T12:54:00.462Z,54.75
2023-04-06T12:56:28.834Z,54.46
2023-04-06T12:58:57.434Z,55.20
2023-04-06T13:01:26.483Z,54.91
2023-04-06T13:03:54.959Z,55.22
2023-04-06T13:06:23.299Z,54.93
2023-04-06T13:08:52.992Z,55.16
2023-04-06T13:11:25.439Z,55.07
2023-04-06T13:13:54.767Z,55.13
2023-04-06T13:16:23.280Z,55.24
2023-04-06T13:18:52.122Z,55.24
2023-04-06T13:21:21.789Z,55.07
2023-04-06T13:23:50.236Z,55.04
2023-04-06T13:26:19.969Z,54.64
2023-04-06T13:28:48.324Z,55.03
2023-04-06T13:31:16.859Z,55.04
2023-04-06T13:33:45.410Z,54.86
2023-04-06T13:36:16.602Z,55.22
2023-04-06T13:38:46.283Z,55.94
2023-04-06T13:41:23.050Z,55.81
2023-04-06T13:43:51.985Z,55.71
2023-04-06T13:46:21.057Z,55.36
2023-04-06T13:48:49.497Z,55.35
2023-04-06T13:51:17.813Z,55.10
2023-04-06T13:53:46.451Z,55.74
2023-04-06T13:56:14.753Z,56.42
2023-04-06T13:58:44.562Z,56.59
2023-04-06T14:01:13.244Z,55.86
2023-04-06T14:03:43.275Z,55.97
2023-04-06T14:06:20.770Z,55.75
2023-04-06T14:08:58.895Z,55.96
2023-04-06T14:11:27.397Z,55.77
2023-04-06T14:13:58.594Z,55.86
2023-04-06T14:16:27.644Z,56.23
2023-04-06T14:18:56.102Z,55.56
2023-04-06T14:21:24.504Z,55.23
2023-04-06T14:23:53.573Z,55.21
2023-04-06T14:26:21.849Z,55.25
2023-04-06T14:28:50.191Z,55.20
2023-04-06T14:31:19.868Z,55.36
2023-04-06T14:33:48.198Z,55.12
2023-04-06T14:36:16.519Z,54.87
2023-04-06T14:38:45.046Z,54.91
2023-04-06T14:41:18.175Z,54.91
2023-04-06T14:43:46.830Z,54.71
2023-04-06T14:46:16.798Z,55.05
2023-04-06T14:48:47.215Z,55.12
2023-04-06T14:51:15.743Z,55.09
2023-04-06T14:53:44.493Z,55.45
2023-04-06T14:56:12.949Z,56.06
2023-04-06T14:58:41.288Z,56.71
2023-04-06T15:01:09.626Z,56.67
2023-04-06T15:03:38.203Z,56.68
2023-04-06T15:06:14.109Z,56.99
2023-04-06T15:08:42.521Z,57.44
2023-04-06T15:11:11.559Z,57.97
2023-04-06T15:13:39.999Z,57.93
2023-04-06T15:16:09.077Z,57.95
2023-04-06T15:18:37.503Z,58.17
2023-04-06T15:21:07.228Z,57.95
2023-04-06T15:23:36.273Z,57.38
2023-04-06T15:26:04.956Z,56.86
2023-04-06T15:28:33.224Z,56.32
2023-04-06T15:31:06.968Z,56.45
2023-04-06T15:33:35.462Z,56.44
2023-04-06T15:36:08.730Z,56.74
2023-04-06T15:38:37.361Z,57.01
2023-04-06T15:41:05.590Z,56.77
2023-04-06T15:43:33.814Z,56.81
2023-04-06T15:46:03.318Z,56.76
2023-04-06T15:48:33.053Z,57.12
2023-04-06T15:51:01.570Z,57.19
2023-04-06T15:53:31.274Z,58.08
2023-04-06T15:56:01.379Z,58.79
2023-04-06T15:58:29.882Z,59.13
2023-04-06T16:00:58.857Z,59.19
2023-04-06T16:03:27.450Z,58.70
2023-04-06T16:06:08.207Z,58.54
2023-04-06T16:08:42.266Z,58.32
2023-04-06T16:11:10.926Z,58.29
2023-04-06T16:13:39.585Z,58.35
2023-04-06T16:16:08.933Z,58.33
2023-04-06T16:18:37.245Z,58.74
2023-04-06T16:21:05.575Z,59.18
2023-04-06T16:23:37.294Z,59.64
2023-04-06T16:26:14.017Z,59.55
2023-04-06T16:28:42.624Z,58.43
2023-04-06T16:31:19.053Z,58.65
2023-04-06T16:33:47.484Z,58.42
2023-04-06T16:36:15.995Z,57.67
2023-04-06T16:38:44.374Z,57.75
2023-04-06T16:41:15.094Z,57.36
2023-04-06T16:43:43.350Z,57.60
2023-04-06T16:46:11.654Z,57.92
2023-04-06T16:48:40.148Z,58.13
2023-04-06T16:51:08.859Z,58.38
2023-04-06T16:53:38.692Z,58.63
2023-04-06T16:58:37.876Z,59.16
2023-04-06T17:01:06.658Z,59.49
2023-04-06T17:03:35.733Z,59.78
2023-04-06T17:06:04.033Z,60.45
2023-04-06T17:08:32.252Z,60.33
2023-04-06T17:11:04.093Z,61.12
2023-04-06T17:13:33.259Z,61.47
2023-04-06T17:16:03.152Z,61.13
2023-04-06T17:18:31.410Z,61.12
2023-04-06T17:21:00.234Z,61.15
2023-04-06T17:23:28.511Z,61.44
2023-04-06T17:25:57.853Z,61.77
2023-04-06T17:28:26.213Z,62.44
2023-04-06T17:30:54.504Z,62.24
2023-04-06T17:33:24.591Z,61.71
2023-04-06T17:35:53.336Z,61.67
2023-04-06T17:38:23.167Z,62.28
2023-04-06T17:40:51.456Z,62.15
2023-04-06T17:43:19.645Z,61.54
2023-04-06T17:45:50.006Z,61.68
2023-04-06T17:48:18.393Z,62.39
2023-04-06T17:50:48.003Z,62.67
2023-04-06T17:53:18.829Z,63.51
2023-04-06T17:55:47.302Z,63.55
2023-04-06T17:58:15.683Z,64.00
2023-04-06T18:00:43.930Z,64.39
2023-04-06T18:03:12.227Z,64.87
2023-04-06T18:05:40.722Z,65.33
2023-04-06T18:08:10.774Z,65.82
2023-04-06T18:10:40.052Z,66.07
2023-04-06T18:13:08.418Z,66.44
2023-04-06T18:15:38.322Z,66.40
2023-04-06T18:18:07.502Z,66.20
2023-04-06T18:20:41.174Z,66.42
2023-04-06T18:23:10.910Z,66.58
2023-04-06T18:25:39.897Z,66.82
2023-04-06T18:28:08.482Z,67.01
2023-04-06T18:30:37.042Z,67.00
2023-04-06T18:33:06.564Z,67.01
2023-04-06T18:35:34.844Z,67.04
2023-04-06T18:38:03.095Z,67.11
2023-04-06T18:40:34.369Z,67.34
2023-04-06T18:43:03.587Z,67.43
2023-04-06T18:45:33.599Z,67.57
2023-04-06T18:48:02.141Z,67.65
2023-04-06T18:50:30.435Z,67.75
2023-04-06T18:52:58.726Z,67.83
2023-04-06T18:55:27.110Z,67.94
2023-04-06T18:57:56.712Z,67.79
2023-04-06T19:00:25.149Z,67.62
2023-04-06T19:02:53.745Z,67.20
2023-04-06T19:05:22.814Z,66.99
2023-04-06T19:07:52.725Z,66.65
2023-04-06T19:10:24.030Z,66.13
2023-04-06T19:12:52.321Z,65.85
2023-04-06T19:15:22.018Z,66.02
2023-04-06T19:17:50.351Z,65.54
2023-04-06T19:20:18.754Z,65.34
2023-04-06T19:22:47.027Z,65.11
2023-04-06T19:25:15.359Z,65.11
2023-04-06T19:27:43.596Z,65.02
2023-04-06T19:30:12.858Z,64.72
2023-04-06T19:32:43.281Z,64.82
2023-04-06T19:35:11.563Z,64.96
2023-04-06T19:37:40.442Z,64.93
2023-04-06T19:40:10.810Z,65.02
2023-04-06T19:42:39.682Z,65.08
2023-04-06T19:45:09.412Z,64.90
2023-04-06T19:47:37.849Z,64.76
2023-04-06T19:50:10.370Z,64.45
2023-04-06T19:52:38.694Z,64.48
2023-04-06T19:55:07.905Z,64.51
2023-04-06T19:57:36.193Z,64.62
2023-04-06T20:00:05.078Z,64.39
2023-04-06T20:02:38.113Z,63.77
2023-04-06T20:05:09.949Z,63.56
2023-04-06T20:07:40.103Z,63.49
2023-04-06T20:10:10.242Z,63.00
2023-04-06T20:12:39.272Z,62.60
2023-04-06T20:15:08.270Z,62.24
2023-04-06T20:17:36.679Z,62.44
2023-04-06T20:20:05.899Z,61.86
2023-04-06T20:22:36.293Z,62.06
2023-04-06T20:25:04.851Z,61.91
2023-04-06T20:27:33.087Z,61.47
2023-04-06T20:30:01.517Z,61.34
2023-04-06T20:32:30.990Z,61.41
2023-04-06T20:34:59.253Z,61.38
2023-04-06T20:37:27.480Z,60.93
2023-04-06T20:39:57.279Z,60.86
2023-04-06T20:42:25.652Z,61.78
2023-04-06T20:44:53.963Z,61.50
2023-04-06T20:47:22.449Z,61.81
2023-04-06T20:49:50.764Z,62.31
2023-04-06T20:52:19.089Z,62.19
2023-04-06T20:54:47.658Z,62.25
2023-04-06T20:57:17.636Z,62.34
2023-04-06T20:59:46.205Z,62.52
2023-04-06T21:02:14.741Z,62.17
2023-04-06T21:04:44.071Z,62.24
2023-04-06T21:07:12.741Z,62.05
2023-04-06T21:09:42.009Z,61.65
2023-04-06T21:12:10.284Z,61.24
2023-04-06T21:14:39.930Z,60.83
2023-04-06T21:17:08.508Z,60.55
2023-04-06T21:19:36.839Z,60.13
2023-04-06T21:22:05.215Z,59.61
2023-04-06T21:24:33.769Z,59.14
2023-04-06T21:27:02.048Z,58.41
2023-04-06T21:29:30.381Z,58.48
2023-04-06T21:32:00.026Z,58.64
2023-04-06T21:34:28.604Z,58.82
2023-04-06T21:36:56.909Z,58.91
2023-04-06T21:39:25.403Z,58.42
2023-04-06T21:41:53.711Z,58.35
2023-04-06T21:44:21.984Z,58.19
2023-04-06T21:46:50.279Z,58.36
2023-04-06T21:49:20.123Z,59.13
2023-04-06T21:51:48.325Z,59.51
2023-04-06T21:54:16.908Z,59.21
2023-04-06T21:56:45.723Z,59.04
2023-04-06T21:59:15.785Z,58.41
2023-04-06T22:01:44.064Z,57.67
2023-04-06T22:04:12.490Z,57.43
2023-04-06T22:06:43.028Z,57.97
2023-04-06T22:09:11.244Z,59.14
2023-04-06T22:11:40.197Z,58.43
2023-04-06T22:14:08.513Z,58.03
2023-04-06T22:16:36.906Z,58.48
2023-04-06T22:19:05.156Z,58.27
2023-04-06T22:21:33.496Z,59.00
2023-04-06T22:24:03.172Z,60.21
2023-04-06T22:26:31.789Z,60.25
2023-04-06T22:29:00.020Z,59.54
2023-04-06T22:31:28.285Z,59.65
2023-04-06T22:33:56.595Z,60.68
2023-04-06T22:36:25.025Z,60.96
2023-04-06T22:38:53.306Z,61.89
2023-04-06T22:41:22.951Z,62.70
2023-04-06T22:43:51.247Z,63.08
2023-04-06T22:46:19.487Z,63.44
2023-04-06T22:48:47.719Z,62.47
2023-04-06T22:51:16.209Z,62.62
2023-04-06T22:53:44.494Z,62.81
2023-04-06T22:56:12.791Z,62.83
2023-04-06T22:58:42.385Z,62.93
2023-04-06T23:01:10.642Z,62.10
2023-04-06T23:03:39.058Z,61.96
2023-04-06T23:06:07.731Z,61.61
2023-04-06T23:08:36.077Z,61.19
2023-04-06T23:11:04.291Z,61.15
2023-04-06T23:13:32.589Z,61.60
2023-04-06T23:16:02.182Z,61.73
2023-04-06T23:18:30.365Z,61.94
2023-04-06T23:20:58.644Z,60.71
2023-04-06T23:23:27.101Z,60.68
2023-04-06T23:25:55.407Z,60.99
2023-04-06T23:28:23.683Z,60.60
2023-04-06T23:30:51.940Z,60.99
2023-04-06T23:33:21.768Z,60.96
2023-04-06T23:35:50.836Z,60.79
2023-04-06T23:38:19.126Z,60.26
2023-04-06T23:40:47.408Z,59.99
2023-04-06T23:43:15.708Z,60.16
2023-04-06T23:45:44.104Z,61.07
2023-04-06T23:48:12.414Z,60.70
2023-04-06T23:50:42.076Z,60.53
2023-04-06T23:53:10.541Z,60.78
2023-04-06T23:55:38.908Z,61.05
2023-04-06T23:58:07.174Z,61.36
